createdAt,value
2023-04-12T00:04:22.019Z,5
2023-04-12T00:09:21.503Z,5
2023-04-12T00:14:21.613Z,4.9
2023-04-12T00:19:25.352Z,4.9
2023-04-12T00:24:23.653Z,4.9
2023-04-12T00:29:21.708Z,4.9
2023-04-12T00:34:21.521Z,5
2023-04-12T00:39:21.500Z,5.1
2023-04-12T00:44:21.805Z,5
2023-04-12T00:49:21.775Z,5.1
2023-04-12T00:54:22.088Z,5.1
2023-04-12T00:59:21.600Z,5.1
2023-04-12T01:04:21.728Z,5.1
2023-04-12T01:09:21.586Z,5.1
2023-04-12T01:14:21.596Z,5.3
2023-04-12T01:19:21.588Z,5.3
2023-04-12T01:24:21.819Z,5.2
2023-04-12T01:29:21.991Z,5.1
2023-04-12T01:34:21.785Z,5.2
2023-04-12T01:39:21.581Z,5.3
2023-04-12T01:44:21.526Z,5.3
2023-04-12T01:49:21.699Z,5.3
2023-04-12T01:54:21.675Z,5.2
2023-04-12T01:59:21.619Z,5.2
2023-04-12T02:04:21.596Z,5.1
2023-04-12T02:09:21.703Z,5.1
2023-04-12T02:14:21.836Z,5.1
2023-04-12T02:19:21.863Z,5.1
2023-04-12T02:24:21.857Z,5.1
2023-04-12T02:29:21.970Z,5.1
2023-04-12T02:34:21.764Z,5.1
2023-04-12T02:39:21.532Z,5.1
2023-04-12T02:44:21.785Z,5.2
2023-04-12T02:49:21.653Z,5.2
2023-04-12T02:54:21.734Z,5.2
2023-04-12T02:59:21.550Z,5.3
2023-04-12T03:04:21.833Z,5.2
2023-04-12T03:09:21.536Z,5.2
2023-04-12T03:14:21.782Z,5.2
2023-04-12T03:19:21.612Z,5.2
2023-04-12T03:24:21.508Z,5.3
2023-04-12T03:29:21.793Z,5.3
2023-04-12T03:34:21.529Z,5.4
2023-04-12T03:39:21.621Z,5.4
2023-04-12T03:44:21.822Z,5.4
2023-04-12T03:49:21.743Z,5.4
2023-04-12T03:54:21.824Z,5.5
2023-04-12T03:59:21.741Z,5.6
2023-04-12T04:14:21.640Z,5.9
2023-04-12T04:19:21.740Z,6
2023-04-12T04:24:21.645Z,6
2023-04-12T04:29:22.195Z,6
2023-04-12T04:34:21.899Z,5.9
2023-04-12T04:39:21.843Z,5.9
2023-04-12T04:44:21.632Z,5.9
2023-04-12T04:49:21.821Z,5.9
2023-04-12T04:54:21.776Z,5.9
2023-04-12T04:59:21.757Z,6
2023-04-12T05:04:21.755Z,6.1
2023-04-12T05:09:32.992Z,6.1
2023-04-12T05:14:23.300Z,6.3
2023-04-12T05:19:21.548Z,6.3
2023-04-12T05:24:21.832Z,6.4
2023-04-12T05:29:21.610Z,6.5
2023-04-12T05:34:21.699Z,6.6
2023-04-12T05:39:21.702Z,6.6
2023-04-12T05:44:21.810Z,6.6
2023-04-12T05:49:21.681Z,6.7
2023-04-12T05:54:21.871Z,6.8
2023-04-12T05:59:21.698Z,6.9
2023-04-12T06:04:21.810Z,7
2023-04-12T06:09:35.253Z,7.1
2023-04-12T06:14:21.566Z,7.1
2023-04-12T06:19:21.681Z,7
2023-04-12T06:24:21.575Z,6.9
2023-04-12T06:29:21.651Z,6.9
2023-04-12T06:34:21.564Z,6.9
2023-04-12T06:39:21.553Z,6.9
2023-04-12T06:44:21.633Z,7
2023-04-12T06:49:21.643Z,6.9
2023-04-12T06:54:21.553Z,7.2
2023-04-12T06:59:21.793Z,7.1
2023-04-12T07:04:21.767Z,7
2023-04-12T07:09:32.940Z,7.1
2023-04-12T07:14:21.907Z,7.1
2023-04-12T07:19:21.597Z,7.2
2023-04-12T07:24:21.872Z,7.2
2023-04-12T07:29:21.708Z,7.1
2023-04-12T07:34:21.668Z,7.3
2023-04-12T07:39:21.893Z,7.4
2023-04-12T07:44:21.829Z,7.5
2023-04-12T07:49:21.902Z,7.7
2023-04-12T07:54:22.375Z,7.5
2023-04-12T07:59:21.755Z,7.8
2023-04-12T08:04:21.670Z,7.8
2023-04-12T08:09:25.280Z,8
2023-04-12T08:14:21.647Z,8.1
2023-04-12T08:19:21.605Z,8.3
2023-04-12T08:24:21.605Z,8.4
2023-04-12T08:29:21.672Z,8.6
2023-04-12T08:34:21.591Z,8.7
2023-04-12T08:39:21.584Z,8.6
2023-04-12T08:44:21.700Z,8.6
2023-04-12T08:49:21.689Z,8.5
2023-04-12T08:54:21.575Z,8.6
2023-04-12T08:59:21.715Z,8.8
2023-04-12T09:04:21.910Z,8.7
2023-04-12T09:09:28.976Z,8.5
2023-04-12T09:14:21.900Z,8.4
2023-04-12T09:19:21.682Z,8.3
2023-04-12T09:24:21.590Z,8.5
2023-04-12T09:29:22.128Z,8.4
2023-04-12T09:34:21.567Z,8.3
2023-04-12T09:39:21.625Z,8.4
2023-04-12T09:44:21.618Z,8.4
2023-04-12T09:49:21.636Z,8.5
2023-04-12T09:54:21.734Z,8.7
2023-04-12T09:59:21.670Z,8.6
2023-04-12T10:04:21.888Z,8.4
2023-04-12T10:09:29.722Z,8.5
2023-04-12T10:14:22.718Z,8.8
2023-04-12T10:19:21.776Z,8.8
2023-04-12T10:24:21.831Z,8.9
2023-04-12T10:29:21.763Z,8.9
2023-04-12T10:34:21.628Z,8.9
2023-04-12T10:39:21.685Z,9
2023-04-12T10:44:21.738Z,9.7
2023-04-12T10:49:21.776Z,10.3
2023-04-12T10:54:21.644Z,10.1
2023-04-12T10:59:25.632Z,9.8
2023-04-12T11:04:22.120Z,10
2023-04-12T11:09:22.868Z,9.9
2023-04-12T11:14:21.867Z,10
2023-04-12T11:19:21.733Z,9.9
2023-04-12T11:24:22.140Z,9.8
2023-04-12T11:29:21.862Z,9.9
2023-04-12T11:34:21.844Z,9.9
2023-04-12T11:39:21.630Z,9.5
2023-04-12T11:44:21.610Z,9.6
2023-04-12T11:49:21.719Z,9.8
2023-04-12T11:54:21.631Z,9.6
2023-04-12T11:59:21.775Z,9.6
2023-04-12T12:04:22.016Z,9.5
2023-04-12T12:09:27.004Z,9.5
2023-04-12T12:14:21.886Z,9.4
2023-04-12T12:19:21.639Z,9.5
2023-04-12T12:24:22.054Z,9.8
2023-04-12T12:29:21.776Z,10.2
2023-04-12T12:34:21.581Z,10.7
2023-04-12T12:39:21.829Z,10.6
2023-04-12T12:44:21.907Z,10.4
2023-04-12T12:49:21.781Z,10.4
2023-04-12T12:54:36.517Z,10.5
2023-04-12T12:59:22.776Z,10.8
2023-04-12T13:04:21.746Z,10.6
2023-04-12T13:09:40.063Z,10.6
2023-04-12T13:14:21.792Z,10.8
2023-04-12T13:19:21.655Z,10.8
2023-04-12T13:24:21.782Z,10.6
2023-04-12T13:29:21.917Z,10.8
2023-04-12T13:34:22.418Z,10.8
2023-04-12T13:39:21.751Z,10.9
2023-04-12T13:44:21.852Z,11.3
2023-04-12T13:49:21.876Z,11.4
2023-04-12T13:54:21.861Z,11.3
2023-04-12T13:59:21.702Z,11.4
2023-04-12T14:04:21.684Z,11.5
2023-04-12T14:09:34.637Z,11.4
2023-04-12T14:14:21.706Z,11.6
2023-04-12T14:19:21.684Z,11.7
2023-04-12T14:24:21.631Z,11.8
2023-04-12T14:29:21.955Z,12.2
2023-04-12T14:34:21.726Z,12.1
2023-04-12T14:39:21.772Z,12.1
2023-04-12T14:44:23.105Z,12.2
2023-04-12T14:49:21.853Z,13
2023-04-12T14:54:21.690Z,13.9
2023-04-12T14:59:21.881Z,13.4
2023-04-12T15:04:21.796Z,13.5
2023-04-12T15:09:33.577Z,13.7
2023-04-12T15:14:21.738Z,13.5
2023-04-12T15:19:23.034Z,13.5
2023-04-12T15:24:21.902Z,13.4
2023-04-12T15:29:21.738Z,13.6
2023-04-12T15:34:21.700Z,13.4
2023-04-12T15:39:21.813Z,13.4
2023-04-12T15:44:23.039Z,13.1
2023-04-12T15:49:21.670Z,13.1
2023-04-12T15:54:21.638Z,12.9
2023-04-12T15:59:21.629Z,12.8
2023-04-12T16:04:23.223Z,13.4
2023-04-12T16:09:38.311Z,13.3
2023-04-12T16:14:21.907Z,13.1
2023-04-12T16:19:22.939Z,12.9
2023-04-12T16:24:21.829Z,13
2023-04-12T16:29:21.693Z,13.3
2023-04-12T16:34:21.943Z,13.3
2023-04-12T16:39:21.659Z,13.1
2023-04-12T16:44:21.912Z,12.9
2023-04-12T16:49:22.076Z,12.9
2023-04-12T16:54:21.783Z,12.8
2023-04-12T16:59:21.855Z,12.8
2023-04-12T17:04:21.825Z,12.6
2023-04-12T17:09:30.071Z,12.5
2023-04-12T17:14:21.775Z,12.6
2023-04-12T17:19:22.104Z,12.6
2023-04-12T17:24:21.774Z,12.5
2023-04-12T17:29:22.085Z,12.1
2023-04-12T17:34:21.666Z,11.6
2023-04-12T17:39:21.682Z,11
2023-04-12T17:44:21.835Z,10.9
2023-04-12T17:49:22.333Z,10.7
2023-04-12T17:54:21.888Z,10.5
2023-04-12T17:59:21.850Z,10.4
2023-04-12T18:04:21.846Z,10.4
2023-04-12T18:09:27.633Z,10.2
2023-04-12T18:14:22.044Z,10.1
2023-04-12T18:19:21.727Z,9.8
2023-04-12T18:24:21.922Z,9.8
2023-04-12T18:29:21.885Z,9.8
2023-04-12T18:34:22.014Z,9.7
2023-04-12T18:39:21.664Z,9.6
2023-04-12T18:44:21.811Z,9.6
2023-04-12T18:49:21.766Z,9.5
2023-04-12T18:54:21.798Z,9.4
2023-04-12T18:59:21.797Z,9.4
2023-04-12T19:04:23.288Z,9.4
2023-04-12T19:09:26.762Z,9.4
2023-04-12T19:14:21.778Z,9.3
2023-04-12T19:19:21.964Z,9.4
2023-04-12T19:24:21.871Z,9.3
2023-04-12T19:29:22.282Z,9.3
2023-04-12T19:34:21.788Z,9.2
2023-04-12T19:39:21.732Z,9.1
2023-04-12T19:44:21.836Z,9.1
2023-04-12T19:49:21.867Z,9.1
2023-04-12T19:54:22.529Z,9.1
2023-04-12T19:59:22.051Z,8.9
2023-04-12T20:04:21.905Z,9
2023-04-12T20:09:33.956Z,8.9
2023-04-12T20:14:21.701Z,8.8
2023-04-12T20:19:21.719Z,8.8
2023-04-12T20:24:21.911Z,8.8
2023-04-12T20:29:21.804Z,8.8
2023-04-12T20:34:21.878Z,8.7
2023-04-12T20:39:21.739Z,8.7
2023-04-12T20:44:21.896Z,8.5
2023-04-12T20:49:21.733Z,8.6
2023-04-12T20:54:21.869Z,8.7
2023-04-12T20:59:21.896Z,8.7
2023-04-12T21:04:21.833Z,8.8
2023-04-12T21:09:34.026Z,8.8
2023-04-12T21:14:21.935Z,8.8
2023-04-12T21:19:21.738Z,8.8
2023-04-12T21:24:21.845Z,8.6
2023-04-12T21:29:21.799Z,8.6
2023-04-12T21:34:21.862Z,8.6
2023-04-12T21:39:21.711Z,8.5
2023-04-12T21:44:21.835Z,8.4
2023-04-12T21:49:21.952Z,8.4
2023-04-12T21:54:21.832Z,8.3
2023-04-12T21:59:21.781Z,8.3
2023-04-12T22:04:21.745Z,8.3
2023-04-12T22:09:34.287Z,8.3
2023-04-12T22:14:21.965Z,8.3
2023-04-12T22:19:22.922Z,8.2
2023-04-12T22:24:21.806Z,8.2
2023-04-12T22:29:21.777Z,8.1
2023-04-12T22:34:21.847Z,8.2
2023-04-12T22:39:21.743Z,8.2
2023-04-12T22:44:21.974Z,8.3
2023-04-12T22:49:21.707Z,8.4
2023-04-12T22:54:21.833Z,8.5
2023-04-12T22:59:21.799Z,8.5
2023-04-12T23:04:21.742Z,8.4
2023-04-12T23:09:23.688Z,8.3
2023-04-12T23:14:21.803Z,8.2
2023-04-12T23:19:21.835Z,8.1
2023-04-12T23:24:23.897Z,8.1
2023-04-12T23:29:21.799Z,8.1
2023-04-12T23:34:21.751Z,8.1
2023-04-12T23:39:21.847Z,7.9
2023-04-12T23:44:21.919Z,7.9
2023-04-12T23:49:21.775Z,7.9
2023-04-12T23:54:22.097Z,7.9
2023-04-12T23:59:21.811Z,7.8
